createdAt,value
2018-03-06T00:00:54.034Z,98131.45
2018-03-06T00:01:56.620Z,98132.83
2018-03-06T00:02:59.165Z,98133.67
2018-03-06T00:04:01.724Z,98130.34
2018-03-06T00:05:04.277Z,98136.31
2018-03-06T00:06:06.819Z,98138.03
2018-03-06T00:07:09.361Z,98139.42
2018-03-06T00:08:11.898Z,98131.80
2018-03-06T00:09:14.450Z,98136.38
2018-03-06T00:10:16.993Z,98132.59
2018-03-06T00:11:19.551Z,98130.11
2018-03-06T00:12:22.092Z,98132.77
2018-03-06T00:13:24.648Z,98133.70
2018-03-06T00:14:27.249Z,98133.17
2018-03-06T00:15:29.772Z,98126.44
2018-03-06T00:16:32.332Z,98123.71
2018-03-06T00:17:34.884Z,98128.66
2018-03-06T00:18:37.726Z,98124.55
2018-03-06T00:19:40.268Z,98128.50
2018-03-06T00:20:42.824Z,98127.70
2018-03-06T00:21:45.373Z,98127.86
2018-03-06T00:22:47.930Z,98127.05
2018-03-06T00:23:50.473Z,98124.37
2018-03-06T00:24:53.009Z,98127.35
2018-03-06T00:25:55.588Z,98125.94
2018-03-06T00:26:58.118Z,98127.39
2018-03-06T00:28:00.658Z,98117.81
2018-03-06T00:29:03.217Z,98125.77
2018-03-06T00:30:05.772Z,98124.20
2018-03-06T00:31:08.334Z,98124.23
2018-03-06T00:32:10.886Z,98126.55
2018-03-06T00:33:13.440Z,98123.75
2018-03-06T00:34:15.958Z,98125.89
2018-03-06T00:35:18.497Z,98129.88
2018-03-06T00:36:21.046Z,98127.47
2018-03-06T00:37:23.588Z,98130.98
2018-03-06T00:38:26.135Z,98131.11
2018-03-06T00:39:28.676Z,98132.02
2018-03-06T00:40:31.229Z,98135.31
2018-03-06T00:41:33.810Z,98136.54
2018-03-06T00:42:36.342Z,98133.28
2018-03-06T00:43:38.892Z,98131.33
2018-03-06T00:44:41.435Z,98132.02
2018-03-06T00:45:43.988Z,98130.83
2018-03-06T00:46:46.543Z,98132.09
2018-03-06T00:47:49.083Z,98128.48
2018-03-06T00:48:51.640Z,98123.48
2018-03-06T00:49:54.199Z,98120.69
2018-03-06T00:50:56.767Z,98118.42
2018-03-06T00:51:59.326Z,98120.28
2018-03-06T00:53:01.848Z,98117.16
2018-03-06T00:54:04.405Z,98109.20
2018-03-06T00:55:06.959Z,98111.91
2018-03-06T00:56:09.522Z,98109.08
2018-03-06T00:57:12.066Z,98105.09
2018-03-06T00:58:14.613Z,98107.66
2018-03-06T00:59:17.166Z,98103.77
2018-03-06T01:00:19.710Z,98099.17
2018-03-06T01:01:22.282Z,98095.00
2018-03-06T01:02:24.869Z,98099.36
2018-03-06T01:03:27.392Z,98097.36
2018-03-06T01:04:29.922Z,98096.97
2018-03-06T01:05:32.476Z,98095.14
2018-03-06T01:06:35.043Z,98094.41
2018-03-06T01:07:37.588Z,98097.30
2018-03-06T01:08:40.132Z,98093.46
2018-03-06T01:09:42.684Z,98090.48
2018-03-06T01:10:45.220Z,98092.88
2018-03-06T01:11:47.796Z,98089.55
2018-03-06T01:12:50.351Z,98090.72
2018-03-06T01:13:52.900Z,98089.16
2018-03-06T01:14:55.445Z,98088.37
2018-03-06T01:15:57.995Z,98087.73
2018-03-06T01:17:00.560Z,98090.16
2018-03-06T01:18:03.107Z,98088.05
2018-03-06T01:19:05.663Z,98092.06
2018-03-06T01:20:08.217Z,98093.63
2018-03-06T01:21:10.800Z,98097.16
2018-03-06T01:22:13.372Z,98099.30
2018-03-06T01:23:15.930Z,98095.05
2018-03-06T01:24:18.479Z,98101.63
2018-03-06T01:25:21.019Z,98097.58
2018-03-06T01:26:23.568Z,98098.34
2018-03-06T01:27:26.119Z,98094.27
2018-03-06T01:28:28.662Z,98092.95
2018-03-06T01:29:31.211Z,98098.67
2018-03-06T01:30:33.752Z,98095.31
2018-03-06T01:31:36.303Z,98099.69
2018-03-06T01:32:38.864Z,98099.27
2018-03-06T01:33:41.411Z,98096.20
2018-03-06T01:34:43.952Z,98097.04
2018-03-06T01:35:46.494Z,98099.19
2018-03-06T01:36:49.021Z,98096.70
2018-03-06T01:37:51.588Z,98097.72
2018-03-06T01:38:54.125Z,98093.67
2018-03-06T01:39:56.670Z,98094.98
2018-03-06T01:40:59.194Z,98087.16
2018-03-06T01:42:01.722Z,98090.02
2018-03-06T01:43:04.324Z,98088.63
2018-03-06T01:44:06.862Z,98084.62
2018-03-06T01:45:09.389Z,98081.52
2018-03-06T01:46:11.921Z,98084.88
2018-03-06T01:47:14.483Z,98083.23
2018-03-06T01:48:17.145Z,98081.44
2018-03-06T01:49:19.716Z,98072.60
2018-03-06T01:50:22.262Z,98075.55
2018-03-06T01:51:24.811Z,98077.02
2018-03-06T01:52:27.351Z,98080.17
2018-03-06T01:53:29.924Z,98072.30
2018-03-06T01:54:32.466Z,98069.82
2018-03-06T01:55:35.002Z,98065.78
2018-03-06T01:56:37.530Z,98066.34
2018-03-06T01:57:40.058Z,98064.14
2018-03-06T01:58:42.618Z,98067.60
2018-03-06T01:59:45.160Z,98059.65
2018-03-06T02:00:47.712Z,98061.12
2018-03-06T02:01:50.247Z,98061.62
2018-03-06T02:02:52.916Z,98058.63
2018-03-06T02:03:55.440Z,98053.77
2018-03-06T02:04:57.980Z,98058.42
2018-03-06T02:06:00.528Z,98053.88
2018-03-06T02:07:03.086Z,98059.06
2018-03-06T02:08:05.622Z,98058.13
2018-03-06T02:09:08.178Z,98056.66
2018-03-06T02:10:10.704Z,98055.59
2018-03-06T02:11:13.255Z,98058.13
2018-03-06T02:12:15.804Z,98058.00
2018-03-06T02:13:18.337Z,98050.94
2018-03-06T02:14:20.870Z,98052.66
2018-03-06T02:15:23.416Z,98050.19
2018-03-06T02:16:25.969Z,98046.56
2018-03-06T02:17:28.516Z,98046.14
2018-03-06T02:18:31.062Z,98046.06
2018-03-06T02:19:33.620Z,98047.66
2018-03-06T02:20:36.152Z,98044.38
2018-03-06T02:21:38.684Z,98046.61
2018-03-06T02:22:41.209Z,98045.22
2018-03-06T02:23:43.744Z,98047.83
2018-03-06T02:24:46.361Z,98053.38
2018-03-06T02:25:48.960Z,98049.94
2018-03-06T02:26:51.507Z,98052.74
2018-03-06T02:27:54.046Z,98053.25
2018-03-06T02:28:56.596Z,98057.20
2018-03-06T02:29:59.134Z,98056.70
2018-03-06T02:31:01.684Z,98054.34
2018-03-06T02:32:04.259Z,98051.87
2018-03-06T02:33:06.794Z,98047.11
2018-03-06T02:34:09.322Z,98051.48
2018-03-06T02:35:11.868Z,98052.44
2018-03-06T02:36:14.398Z,98051.02
2018-03-06T02:37:16.933Z,98054.84
2018-03-06T02:38:19.496Z,98055.09
2018-03-06T02:39:22.049Z,98056.81
2018-03-06T02:40:24.593Z,98059.97
2018-03-06T02:41:27.181Z,98057.63
2018-03-06T02:42:29.714Z,98058.89
2018-03-06T02:43:32.256Z,98064.02
2018-03-06T02:44:34.804Z,98061.40
2018-03-06T02:45:37.355Z,98064.55
2018-03-06T02:46:39.897Z,98062.63
2018-03-06T02:47:42.439Z,98062.28
2018-03-06T02:48:44.969Z,98061.41
2018-03-06T02:49:47.531Z,98061.88
2018-03-06T02:50:50.080Z,98062.22
2018-03-06T02:51:52.624Z,98062.33
2018-03-06T02:52:55.365Z,98063.16
2018-03-06T02:53:57.918Z,98062.20
2018-03-06T02:55:00.438Z,98062.02
2018-03-06T02:56:02.987Z,98061.88
2018-03-06T02:57:05.537Z,98054.78
2018-03-06T02:58:08.088Z,98054.40
2018-03-06T02:59:10.643Z,98050.81
2018-03-06T03:00:13.212Z,98043.77
2018-03-06T03:01:15.757Z,98045.48
2018-03-06T03:02:18.320Z,98044.28
2018-03-06T03:03:20.875Z,98046.41
2018-03-06T03:04:23.416Z,98050.22
2018-03-06T03:05:25.968Z,98051.20
2018-03-06T03:06:28.510Z,98045.37
2018-03-06T03:07:31.068Z,98042.75
2018-03-06T03:08:33.603Z,98039.08
2018-03-06T03:09:36.152Z,98042.48
2018-03-06T03:10:38.688Z,98033.20
2018-03-06T03:11:41.225Z,98038.02
2018-03-06T03:12:43.758Z,98043.15
2018-03-06T03:13:46.304Z,98041.13
2018-03-06T03:14:48.860Z,98039.17
2018-03-06T03:15:51.424Z,98040.19
2018-03-06T03:16:53.979Z,98041.95
2018-03-06T03:17:56.539Z,98044.30
2018-03-06T03:18:59.080Z,98043.22
2018-03-06T03:20:01.676Z,98042.25
2018-03-06T03:21:04.182Z,98042.11
2018-03-06T03:22:06.723Z,98039.98
2018-03-06T03:23:09.269Z,98044.03
2018-03-06T03:24:11.825Z,98042.92
2018-03-06T03:25:14.383Z,98040.59
2018-03-06T03:26:16.941Z,98043.75
2018-03-06T03:27:19.486Z,98046.23
2018-03-06T03:28:22.070Z,98040.39
2018-03-06T03:29:24.621Z,98040.13
2018-03-06T03:30:27.195Z,98037.70
2018-03-06T03:31:29.734Z,98041.24
2018-03-06T03:32:32.289Z,98036.48
2018-03-06T03:33:34.844Z,98038.58
2018-03-06T03:34:37.378Z,98035.03
2018-03-06T03:35:39.937Z,98038.47
2018-03-06T03:36:42.515Z,98042.41
2018-03-06T03:37:45.070Z,98044.86
2018-03-06T03:38:47.674Z,98039.56
2018-03-06T03:39:50.216Z,98044.52
2018-03-06T03:40:52.803Z,98044.63
2018-03-06T03:41:55.345Z,98040.50
2018-03-06T03:42:57.894Z,98046.10
2018-03-06T03:44:00.448Z,98037.86
2018-03-06T03:45:03.005Z,98039.62
2018-03-06T03:46:05.564Z,98036.28
2018-03-06T03:47:08.518Z,98037.16
2018-03-06T03:48:11.071Z,98037.47
2018-03-06T03:49:13.610Z,98032.42
2018-03-06T03:50:16.138Z,98035.66
2018-03-06T03:51:18.685Z,98040.61
2018-03-06T03:52:21.218Z,98033.81
2018-03-06T03:53:23.775Z,98035.42
2018-03-06T03:54:26.351Z,98039.38
2018-03-06T03:55:28.901Z,98032.81
2018-03-06T03:56:31.434Z,98036.64
2018-03-06T03:57:33.982Z,98041.00
2018-03-06T03:58:36.519Z,98033.66
2018-03-06T03:59:39.063Z,98041.77
2018-03-06T04:00:41.600Z,98038.50
2018-03-06T04:01:44.153Z,98038.49
2018-03-06T04:02:46.709Z,98041.55
2018-03-06T04:03:49.247Z,98038.52
2018-03-06T04:04:51.824Z,98036.35
2018-03-06T04:05:54.379Z,98036.68
2018-03-06T04:06:56.923Z,98040.88
2018-03-06T04:07:59.479Z,98036.39
2018-03-06T04:09:02.007Z,98036.22
2018-03-06T04:10:04.543Z,98039.29
2018-03-06T04:11:07.077Z,98035.50
2018-03-06T04:12:09.614Z,98035.51
2018-03-06T04:13:12.141Z,98042.11
2018-03-06T04:14:14.683Z,98035.72
2018-03-06T04:15:17.252Z,98035.50
2018-03-06T04:16:19.825Z,98032.77
2018-03-06T04:17:22.361Z,98034.84
2018-03-06T04:18:24.910Z,98030.80
2018-03-06T04:19:27.450Z,98029.32
2018-03-06T04:20:29.984Z,98023.61
2018-03-06T04:21:32.554Z,98023.78
2018-03-06T04:22:35.101Z,98026.03
2018-03-06T04:23:37.631Z,98025.91
2018-03-06T04:24:40.184Z,98022.41
2018-03-06T04:25:42.721Z,98021.34
2018-03-06T04:26:45.293Z,98020.27
2018-03-06T04:27:47.840Z,98022.91
2018-03-06T04:28:50.384Z,98025.50
2018-03-06T04:29:52.926Z,98020.80
2018-03-06T04:30:55.479Z,98024.12
2018-03-06T04:31:58.051Z,98022.83
2018-03-06T04:33:00.600Z,98021.64
2018-03-06T04:34:03.146Z,98025.16
2018-03-06T04:35:05.688Z,98025.01
2018-03-06T04:36:08.227Z,98023.44
2018-03-06T04:37:10.799Z,98025.27
2018-03-06T04:38:13.350Z,98029.06
2018-03-06T04:39:15.882Z,98025.35
2018-03-06T04:40:18.445Z,98024.58
2018-03-06T04:41:20.986Z,98028.33
2018-03-06T04:42:23.533Z,98027.48
2018-03-06T04:43:26.217Z,98020.86
2018-03-06T04:44:28.763Z,98024.00
2018-03-06T04:45:31.317Z,98032.88
2018-03-06T04:46:33.857Z,98029.28
2018-03-06T04:47:36.393Z,98022.92
2018-03-06T04:48:38.924Z,98026.52
2018-03-06T04:49:41.468Z,98029.48
2018-03-06T04:50:44.028Z,98026.56
2018-03-06T04:51:46.551Z,98019.55
2018-03-06T04:52:49.100Z,98017.59
2018-03-06T04:53:51.643Z,98017.28
2018-03-06T04:54:54.204Z,98015.98
2018-03-06T04:55:56.753Z,98017.91
2018-03-06T04:56:59.308Z,98022.12
2018-03-06T04:58:01.856Z,98013.23
2018-03-06T04:59:04.394Z,98017.80
2018-03-06T05:00:06.930Z,98016.57
2018-03-06T05:01:09.476Z,98021.52
2018-03-06T05:02:12.019Z,98019.55
2018-03-06T05:03:14.573Z,98014.92
2018-03-06T05:04:17.121Z,98018.53
2018-03-06T05:05:19.672Z,98012.06
2018-03-06T05:06:22.218Z,98020.75
2018-03-06T05:07:24.737Z,98016.35
2018-03-06T05:08:27.273Z,98016.39
2018-03-06T05:09:29.806Z,98021.09
2018-03-06T05:10:32.356Z,98018.66
2018-03-06T05:11:34.900Z,98017.47
2018-03-06T05:12:37.459Z,98005.90
2018-03-06T05:13:40.008Z,98009.44
2018-03-06T05:14:42.568Z,98013.64
2018-03-06T05:15:45.102Z,98014.60
2018-03-06T05:16:47.626Z,98013.64
2018-03-06T05:17:50.157Z,98011.54
2018-03-06T05:18:52.726Z,98021.25
2018-03-06T05:19:55.267Z,98019.57
2018-03-06T05:20:57.801Z,98018.27
2018-03-06T05:22:00.347Z,98020.30
2018-03-06T05:23:02.924Z,98018.73
2018-03-06T05:24:05.462Z,98020.11
2018-03-06T05:25:07.998Z,98017.01
2018-03-06T05:26:10.530Z,98021.52
2018-03-06T05:27:13.049Z,98021.56
2018-03-06T05:28:15.607Z,98015.41
2018-03-06T05:29:18.180Z,98016.78
2018-03-06T05:30:20.719Z,98016.36
2018-03-06T05:31:23.278Z,98015.55
2018-03-06T05:32:25.840Z,98014.48
2018-03-06T05:33:28.399Z,98018.62
2018-03-06T05:34:30.935Z,98014.18
2018-03-06T05:35:33.480Z,98019.87
2018-03-06T05:36:36.017Z,98019.39
2018-03-06T05:37:39.396Z,98020.07
2018-03-06T05:38:50.537Z,98021.95
2018-03-06T05:39:53.083Z,98019.45
2018-03-06T05:40:55.628Z,98025.77
2018-03-06T05:41:58.190Z,98020.22
2018-03-06T05:43:00.740Z,98022.87
2018-03-06T05:44:03.996Z,98027.11
2018-03-06T05:45:06.542Z,98026.46
2018-03-06T05:46:09.077Z,98027.45
2018-03-06T05:47:11.636Z,98024.55
2018-03-06T05:48:14.171Z,98031.89
2018-03-06T05:49:16.727Z,98031.89
2018-03-06T05:50:19.493Z,98025.50
2018-03-06T05:51:22.692Z,98023.06
2018-03-06T05:52:25.582Z,98023.55
2018-03-06T05:53:28.271Z,98024.66
2018-03-06T05:54:31.669Z,98023.75
2018-03-06T05:55:34.395Z,98024.55
2018-03-06T05:56:37.877Z,98020.95
2018-03-06T05:57:40.553Z,98024.51
2018-03-06T05:58:43.612Z,98028.68
2018-03-06T05:59:46.153Z,98026.23
2018-03-06T06:00:48.695Z,98023.23
2018-03-06T06:01:51.238Z,98025.31
2018-03-06T06:02:53.788Z,98022.20
2018-03-06T06:03:56.328Z,98022.48
2018-03-06T06:04:58.870Z,98026.66
2018-03-06T06:06:01.419Z,98026.19
2018-03-06T06:07:03.972Z,98029.52
2018-03-06T06:08:06.503Z,98024.44
2018-03-06T06:09:09.045Z,98029.90
2018-03-06T06:10:11.578Z,98028.98
2018-03-06T06:11:14.110Z,98032.53
2018-03-06T06:12:16.655Z,98031.73
2018-03-06T06:13:19.209Z,98028.95
2018-03-06T06:14:21.752Z,98032.84
2018-03-06T06:15:29.638Z,98031.09
2018-03-06T06:16:32.184Z,98037.56
2018-03-06T06:17:34.751Z,98036.33
2018-03-06T06:18:38.047Z,98037.71
2018-03-06T06:19:40.578Z,98036.80
2018-03-06T06:20:43.097Z,98032.27
2018-03-06T06:21:49.844Z,98036.20
2018-03-06T06:22:52.776Z,98032.63
2018-03-06T06:23:55.827Z,98036.55
2018-03-06T06:24:58.418Z,98034.15
2018-03-06T06:26:01.065Z,98036.52
2018-03-06T06:27:03.703Z,98033.69
2018-03-06T06:28:06.375Z,98040.03
2018-03-06T06:29:08.965Z,98037.44
2018-03-06T06:30:11.493Z,98049.34
2018-03-06T06:31:14.016Z,98045.02
2018-03-06T06:32:16.557Z,98044.44
2018-03-06T06:33:19.100Z,98048.27
2018-03-06T06:34:21.753Z,98048.39
2018-03-06T06:35:24.376Z,98046.86
2018-03-06T06:36:26.927Z,98049.91
2018-03-06T06:37:29.456Z,98049.33
2018-03-06T06:38:31.964Z,98052.59
2018-03-06T06:39:34.520Z,98052.58
2018-03-06T06:40:37.044Z,98048.69
2018-03-06T06:41:39.558Z,98056.16
2018-03-06T06:42:42.132Z,98053.92
2018-03-06T06:43:44.649Z,98055.00
2018-03-06T06:44:47.194Z,98056.69
2018-03-06T06:45:49.734Z,98057.87
2018-03-06T06:46:52.306Z,98054.81
2018-03-06T06:47:54.811Z,98055.19
2018-03-06T06:48:57.353Z,98051.72
2018-03-06T06:49:59.891Z,98054.42
2018-03-06T06:51:02.505Z,98055.27
2018-03-06T06:52:05.048Z,98048.14
2018-03-06T06:53:07.562Z,98051.16
2018-03-06T06:54:10.088Z,98056.17
2018-03-06T06:55:12.646Z,98058.31
2018-03-06T06:56:15.179Z,98057.30
2018-03-06T06:57:17.717Z,98057.83
2018-03-06T06:58:20.241Z,98052.95
2018-03-06T06:59:22.763Z,98053.11
2018-03-06T07:00:25.284Z,98047.93
2018-03-06T07:01:27.804Z,98049.86
2018-03-06T07:02:30.361Z,98045.09
2018-03-06T07:03:32.882Z,98049.34
2018-03-06T07:04:35.482Z,98045.51
2018-03-06T07:05:38.286Z,98044.98
2018-03-06T07:06:40.853Z,98049.08
2018-03-06T07:07:43.362Z,98049.47
2018-03-06T07:08:45.882Z,98044.38
2018-03-06T07:09:48.422Z,98043.60
2018-03-06T07:10:50.930Z,98042.69
2018-03-06T07:11:53.449Z,98044.86
2018-03-06T07:12:55.976Z,98041.54
2018-03-06T07:13:58.485Z,98040.42
2018-03-06T07:15:01.034Z,98039.42
2018-03-06T07:16:03.606Z,98043.56
2018-03-06T07:17:06.121Z,98042.52
2018-03-06T07:18:08.754Z,98047.39
2018-03-06T07:19:11.335Z,98043.95
2018-03-06T07:20:13.866Z,98044.30
2018-03-06T07:21:16.520Z,98044.83
2018-03-06T07:22:19.016Z,98048.02
2018-03-06T07:23:21.543Z,98047.17
2018-03-06T07:24:24.058Z,98046.55
2018-03-06T07:25:26.568Z,98051.96
2018-03-06T07:26:29.143Z,98050.41
2018-03-06T07:27:31.632Z,98049.44
2018-03-06T07:28:34.156Z,98050.45
2018-03-06T07:29:36.681Z,98049.45
2018-03-06T07:30:39.204Z,98048.99
2018-03-06T07:31:41.713Z,98048.60
2018-03-06T07:32:44.235Z,98050.26
2018-03-06T07:33:46.772Z,98050.29
2018-03-06T07:34:49.304Z,98049.48
2018-03-06T07:35:51.811Z,98046.17
2018-03-06T07:36:54.464Z,98048.50
2018-03-06T07:37:57.346Z,98047.50
2018-03-06T07:38:59.891Z,98046.88
2018-03-06T07:40:02.562Z,98044.16
2018-03-06T07:41:05.228Z,98043.41
2018-03-06T07:42:07.910Z,98045.09
2018-03-06T07:43:10.559Z,98044.71
2018-03-06T07:44:13.082Z,98045.77
2018-03-06T07:45:15.735Z,98040.26
2018-03-06T07:46:18.402Z,98045.48
2018-03-06T07:47:21.135Z,98048.61
2018-03-06T07:48:28.084Z,98043.91
2018-03-06T07:49:30.956Z,98043.16
2018-03-06T07:50:33.540Z,98045.02
2018-03-06T07:51:36.084Z,98039.48
2018-03-06T07:52:38.683Z,98044.06
2018-03-06T07:53:41.202Z,98047.13
2018-03-06T07:54:43.727Z,98042.97
2018-03-06T07:55:46.361Z,98041.13
2018-03-06T07:56:48.990Z,98042.55
2018-03-06T07:57:51.590Z,98036.25
2018-03-06T07:58:54.354Z,98043.03
2018-03-06T07:59:56.873Z,98030.78
2018-03-06T08:00:59.563Z,98036.71
2018-03-06T08:02:02.227Z,98033.56
2018-03-06T08:03:04.745Z,98039.70
2018-03-06T08:04:07.262Z,98039.56
2018-03-06T08:05:09.800Z,98038.70
2018-03-06T08:06:12.330Z,98039.14
2018-03-06T08:07:14.919Z,98045.73
2018-03-06T08:08:17.462Z,98044.37
2018-03-06T08:09:20.010Z,98044.16
2018-03-06T08:10:22.526Z,98043.47
2018-03-06T08:11:25.052Z,98041.48
2018-03-06T08:12:27.642Z,98049.93
2018-03-06T08:13:30.218Z,98045.39
2018-03-06T08:14:32.744Z,98041.27
2018-03-06T08:15:35.529Z,98045.95
2018-03-06T08:16:38.095Z,98042.63
2018-03-06T08:17:40.631Z,98043.02
2018-03-06T08:18:43.164Z,98049.09
2018-03-06T08:19:45.756Z,98043.78
2018-03-06T08:20:48.418Z,98044.30
2018-03-06T08:21:51.030Z,98018.45
2018-03-06T08:22:53.562Z,98039.40
2018-03-06T08:23:56.138Z,98040.27
2018-03-06T08:24:58.648Z,98038.21
2018-03-06T08:26:01.163Z,98038.63
2018-03-06T08:27:03.690Z,98033.64
2018-03-06T08:28:06.217Z,98034.95
2018-03-06T08:29:08.729Z,98037.89
2018-03-06T08:30:11.237Z,98037.66
2018-03-06T08:31:13.772Z,98036.10
2018-03-06T08:32:16.626Z,98032.62
2018-03-06T08:33:19.487Z,98034.09
2018-03-06T08:34:22.071Z,98036.87
2018-03-06T08:35:24.616Z,98029.12
2018-03-06T08:36:27.592Z,98032.94
2018-03-06T08:37:30.113Z,98030.73
2018-03-06T08:38:32.663Z,98029.91
2018-03-06T08:39:35.337Z,98034.98
2018-03-06T08:40:38.048Z,98031.41
2018-03-06T08:41:40.636Z,98030.42
2018-03-06T08:42:43.776Z,98028.47
2018-03-06T08:43:46.699Z,98020.27
2018-03-06T08:44:49.452Z,98024.19
2018-03-06T08:45:52.040Z,98021.23
2018-03-06T08:46:54.583Z,98009.58
2018-03-06T08:47:57.330Z,98008.38
2018-03-06T08:48:59.883Z,98019.17
2018-03-06T08:50:02.445Z,98020.14
2018-03-06T08:51:04.987Z,98018.45
2018-03-06T08:52:07.512Z,98015.44
2018-03-06T08:53:10.127Z,98020.48
2018-03-06T08:54:13.577Z,98016.33
2018-03-06T08:55:16.967Z,98019.53
2018-03-06T08:56:19.659Z,98017.25
2018-03-06T08:57:22.230Z,98018.55
2018-03-06T08:58:24.857Z,98022.19
2018-03-06T08:59:28.196Z,98019.56
2018-03-06T09:00:30.828Z,98023.69
2018-03-06T09:01:33.649Z,98018.97
2018-03-06T09:02:36.291Z,98030.34
2018-03-06T09:03:38.864Z,98024.83
2018-03-06T09:04:41.371Z,98028.58
2018-03-06T09:05:43.887Z,98024.82
2018-03-06T09:06:46.424Z,98015.89
2018-03-06T09:07:49.003Z,98020.58
2018-03-06T09:08:51.519Z,98023.12
2018-03-06T09:09:54.055Z,98023.14
2018-03-06T09:10:56.573Z,98025.25
2018-03-06T09:11:59.095Z,98024.41
2018-03-06T09:13:01.648Z,98028.23
2018-03-06T09:14:04.186Z,98019.75
2018-03-06T09:15:06.758Z,98027.81
2018-03-06T09:16:09.277Z,98020.92
2018-03-06T09:17:11.813Z,98021.72
2018-03-06T09:18:14.331Z,98024.00
2018-03-06T09:19:16.994Z,98019.67
2018-03-06T09:20:19.523Z,98012.91
2018-03-06T09:21:22.054Z,98015.06
2018-03-06T09:22:24.570Z,98021.84
2018-03-06T09:23:27.078Z,98012.50
2018-03-06T09:24:29.665Z,98023.12
2018-03-06T09:25:32.170Z,98016.28
2018-03-06T09:26:34.718Z,98018.66
2018-03-06T09:27:37.245Z,98018.28
2018-03-06T09:28:39.768Z,98016.50
2018-03-06T09:29:42.302Z,98013.95
2018-03-06T09:30:44.926Z,98017.48
2018-03-06T09:31:47.460Z,98019.75
2018-03-06T09:32:49.990Z,98014.63
2018-03-06T09:33:52.505Z,98018.87
2018-03-06T09:34:55.052Z,98021.27
2018-03-06T09:35:57.590Z,98022.72
2018-03-06T09:37:00.116Z,98019.17
2018-03-06T09:38:02.655Z,98028.98
2018-03-06T09:39:05.185Z,98021.34
2018-03-06T09:40:07.714Z,98024.83
2018-03-06T09:41:10.255Z,98026.94
2018-03-06T09:42:12.910Z,98023.91
2018-03-06T09:43:15.435Z,98027.59
2018-03-06T09:44:17.953Z,98025.69
2018-03-06T09:45:20.486Z,98024.56
2018-03-06T09:46:23.421Z,98030.31
2018-03-06T09:47:25.953Z,98034.62
2018-03-06T09:48:28.491Z,98038.38
2018-03-06T09:49:31.016Z,98025.80
2018-03-06T09:50:33.558Z,98030.48
2018-03-06T09:51:36.077Z,98028.20
2018-03-06T09:52:38.609Z,98028.53
2018-03-06T09:53:41.149Z,98031.61
2018-03-06T09:54:43.790Z,98022.69
2018-03-06T09:55:46.334Z,98028.64
2018-03-06T09:56:48.878Z,98029.91
2018-03-06T09:57:51.395Z,98031.01
2018-03-06T09:58:53.936Z,98024.88
2018-03-06T09:59:56.465Z,98029.83
2018-03-06T10:00:59.001Z,98031.44
2018-03-06T10:02:01.620Z,98027.26
2018-03-06T10:03:04.176Z,98024.69
2018-03-06T10:04:06.884Z,98027.55
2018-03-06T10:05:09.427Z,98025.16
2018-03-06T10:06:11.963Z,98028.44
2018-03-06T10:07:14.546Z,98029.89
2018-03-06T10:08:17.073Z,98027.19
2018-03-06T10:09:19.772Z,98024.84
2018-03-06T10:10:22.333Z,98025.36
2018-03-06T10:11:24.871Z,98018.08
2018-03-06T10:12:27.391Z,98021.27
2018-03-06T10:13:29.965Z,98024.18
2018-03-06T10:14:32.492Z,98020.89
2018-03-06T10:15:35.104Z,98017.03
2018-03-06T10:16:37.767Z,98015.53
2018-03-06T10:17:41.609Z,98021.79
2018-03-06T10:18:44.129Z,98016.74
2018-03-06T10:19:46.653Z,98018.38
2018-03-06T10:20:49.221Z,98018.14
2018-03-06T10:21:51.776Z,98018.70
2018-03-06T10:22:54.335Z,98019.27
2018-03-06T10:23:56.863Z,98016.69
2018-03-06T10:24:59.518Z,98016.19
2018-03-06T10:26:02.046Z,98014.77
2018-03-06T10:27:04.603Z,98020.39
2018-03-06T10:28:07.126Z,98022.46
2018-03-06T10:29:09.654Z,98024.58
2018-03-06T10:30:12.219Z,98019.39
2018-03-06T10:31:14.763Z,98017.95
2018-03-06T10:32:19.192Z,98022.66
2018-03-06T10:33:22.614Z,98022.64
2018-03-06T10:36:39.221Z,98022.06
2018-03-06T10:37:48.163Z,98019.95
2018-03-06T10:38:50.916Z,98024.61
2018-03-06T10:39:54.457Z,98019.67
2018-03-06T10:40:56.970Z,98016.97
2018-03-06T10:41:59.494Z,98021.53
2018-03-06T10:43:02.031Z,98019.06
2018-03-06T10:44:04.545Z,98016.18
2018-03-06T10:45:07.067Z,98017.34
2018-03-06T10:46:09.628Z,98020.00
2018-03-06T10:47:12.554Z,98020.80
2018-03-06T10:48:15.084Z,98013.36
2018-03-06T10:49:17.622Z,98018.56
2018-03-06T10:50:20.156Z,98023.57
2018-03-06T10:51:22.679Z,98021.15
2018-03-06T10:52:25.194Z,98008.66
2018-03-06T10:53:27.749Z,98009.16
2018-03-06T10:54:30.285Z,98011.66
2018-03-06T10:55:32.818Z,98013.03
2018-03-06T10:56:35.349Z,98012.22
2018-03-06T10:57:37.881Z,98008.89
2018-03-06T10:58:40.394Z,98016.91
2018-03-06T10:59:42.944Z,98015.50
2018-03-06T11:00:48.160Z,98011.06
2018-03-06T11:01:50.718Z,98010.00
2018-03-06T11:02:53.258Z,98011.53
2018-03-06T11:03:55.777Z,98012.51
2018-03-06T11:04:58.294Z,98015.39
2018-03-06T11:06:00.824Z,98013.91
2018-03-06T11:07:03.338Z,98012.66
2018-03-06T11:08:05.850Z,98007.78
2018-03-06T11:09:08.366Z,98012.22
2018-03-06T11:10:10.921Z,98007.88
2018-03-06T11:11:13.448Z,98006.41
2018-03-06T11:12:15.975Z,98005.47
2018-03-06T11:13:18.506Z,98007.11
2018-03-06T11:14:21.031Z,98006.69
2018-03-06T11:15:23.572Z,98003.87
2018-03-06T11:16:26.096Z,98000.52
2018-03-06T11:17:28.680Z,98004.61
2018-03-06T11:18:31.204Z,98007.29
2018-03-06T11:19:33.722Z,98002.52
2018-03-06T11:20:36.233Z,98008.52
2018-03-06T11:21:38.858Z,97997.19
2018-03-06T11:22:41.370Z,98003.91
2018-03-06T11:23:43.918Z,98003.21
2018-03-06T11:24:46.456Z,98001.69
2018-03-06T11:25:48.986Z,98001.40
2018-03-06T11:26:51.519Z,97997.62
2018-03-06T11:27:54.082Z,97991.78
2018-03-06T11:28:56.975Z,97996.07
2018-03-06T11:29:59.677Z,97997.93
2018-03-06T11:31:02.226Z,97999.88
2018-03-06T11:32:04.864Z,98007.45
2018-03-06T11:33:07.401Z,98005.40
2018-03-06T11:34:09.959Z,98006.68
2018-03-06T11:35:12.474Z,98001.91
2018-03-06T11:36:15.114Z,98000.83
2018-03-06T11:37:17.653Z,98001.86
2018-03-06T11:38:20.169Z,98004.31
2018-03-06T11:39:22.692Z,98001.34
2018-03-06T11:40:25.210Z,98000.72
2018-03-06T11:41:27.747Z,97996.09
2018-03-06T11:42:30.353Z,98002.87
2018-03-06T11:43:32.918Z,97997.41
2018-03-06T11:44:35.453Z,98004.20
2018-03-06T11:45:37.961Z,98002.39
2018-03-06T11:46:40.496Z,97999.61
2018-03-06T11:47:43.010Z,98001.33
2018-03-06T11:48:45.536Z,97996.84
2018-03-06T11:49:48.080Z,98007.35
2018-03-06T11:50:50.598Z,98001.05
2018-03-06T11:51:53.149Z,98002.45
2018-03-06T11:52:55.662Z,98002.83
2018-03-06T11:53:58.174Z,98004.02
2018-03-06T11:55:00.705Z,98002.84
2018-03-06T11:56:03.240Z,97998.09
2018-03-06T11:57:05.789Z,98003.80
2018-03-06T11:58:08.432Z,97999.64
2018-03-06T11:59:11.012Z,97995.34
2018-03-06T12:00:13.578Z,97993.88
2018-03-06T12:01:16.135Z,97995.69
2018-03-06T12:02:18.880Z,97995.41
2018-03-06T12:03:21.427Z,97993.67
2018-03-06T12:04:23.978Z,97995.70
2018-03-06T12:05:26.507Z,97997.23
2018-03-06T12:06:29.040Z,97994.38
2018-03-06T12:07:31.563Z,98002.11
2018-03-06T12:08:34.157Z,97994.59
2018-03-06T12:09:36.688Z,97996.72
2018-03-06T12:10:39.210Z,97993.13
2018-03-06T12:11:41.730Z,97998.39
2018-03-06T12:12:44.290Z,97996.50
2018-03-06T12:13:46.831Z,97998.23
2018-03-06T12:14:49.396Z,98000.32
2018-03-06T12:15:51.914Z,98000.17
2018-03-06T12:16:54.429Z,98002.44
2018-03-06T12:17:57.002Z,97999.73